Aérodrome :
LOGIN :

S'inscrire | Disclaimer

   EN    FR    IT 

 










Légende :    VFR   VFR Marginal   IFR   IFR Intensif   IFR Très Intensif
Visi : 
Plafond : 
>= 8 km
>= 3000ft
5 à 8 km
1000 à 3000 ft
1500m à 5 km
500 à 1000 ft
800 à 1500m
200 à 500 ft
< 800m
< 200 ft
Symboles :   Orages  Brouillard  Fortes neiges  Fortes précipitations  Vent > 20 kt
SIGMETs :   Divers  Orages  Givrage  Turbulence  Onde Orograph.  Cendres Volcan.







- Altitude de l'aérodrome : 37 ft
- Code IATA : FRO


ENFL - Florø

DERNIER METAR :
  • 200820Z 23022KT 9999 VCSH FEW015 FEW020CB SCT035 07/04 Q1015

METARs EXPIRÉS :
  • 200750Z 22018KT 9999 VCSH FEW012 FEW020TCU SCT035 07/04 Q1015
  • 200720Z 24013KT 9999 VCSH FEW015 FEW022TCU SCT035 06/03 Q1015
  • 200650Z 24018KT 9999 -SHRA FEW015 FEW020TCU SCT035 06/03 Q1014
  • 200620Z 22018KT 9999 VCSH FEW012 FEW020TCU SCT035 06/04 Q1014
  • 200550Z 23017KT 9999 VCSH FEW020TCU SCT035 BKN090 06/04 Q1013

TAF TAF ENFL
Valide du 20 à 09h jusqu'au 20 à 18h UTC


200800Z 2009/2018 22018KT 9999 -SHRA FEW015TCU BKN030
TEMPO 2009/2018 SHRA BKN015CB
Pas de NOTAMs connus pour ce terrain.



MET'MAP, la Météo Aéronautique d'un coup d'oeil ! - Copyright ORBIFLY Décembre 2007 - Disclaimer

ORBIFLY MET'MAP TEAM :

Programmation & Développement : Alexandra Zaïnal
Conception & Développement : Baudouin d'Aumeries
Co-Programmation & Développement : Marc-Olivier Méhu
Soutien technique & logistique : Manuel Goepfert

Contact : metmap@orbifly.com




SOURCES & CREDITS :

   NOAA